Time;durP1;ratioP1;P1;durP2;ratioP2;P2;SDS_P1;SDS_P2;PMS_P1;PMS_P2;Temp;Humidity;BMP_temperature;BMP_pressure;BME280_temperature;BME280_humidity;BME280_pressure;Samples;Min_cycle;Max_cycle;Signal;HPM_P1;HPM_P2
2022/09/15 00:00:00;;;;;;;1.13;1.10;;;21.50;99.90;;;;;;5043530;28;20286;-71
2022/09/15 00:02:27;;;;;;;1.52;1.20;;;21.50;99.90;;;;;;5034681;28;20210;-72
2022/09/15 00:04:54;;;;;;;2.17;1.33;;;21.50;99.90;;;;;;5038799;28;20712;-72
2022/09/15 00:07:21;;;;;;;1.75;1.15;;;21.50;99.90;;;;;;5037569;28;20191;-71
2022/09/15 00:09:48;;;;;;;4.38;1.48;;;21.40;99.90;;;;;;5031566;28;20233;-71
2022/09/15 00:12:17;;;;;;;1.58;1.17;;;21.40;99.90;;;;;;5035998;28;20192;-71
2022/09/15 00:14:44;;;;;;;1.30;1.20;;;21.30;99.90;;;;;;5030890;28;20314;-71
2022/09/15 00:17:11;;;;;;;2.60;1.65;;;21.30;99.90;;;;;;5036051;28;20192;-72
2022/09/15 00:19:38;;;;;;;2.35;1.45;;;21.20;99.90;;;;;;5035476;28;20223;-71
2022/09/15 00:22:05;;;;;;;3.08;1.60;;;21.10;99.90;;;;;;5033971;28;20203;-71
2022/09/15 00:24:32;;;;;;;2.15;1.48;;;21.10;99.90;;;;;;5042376;28;20250;-71
2022/09/15 00:26:59;;;;;;;2.80;1.55;;;21.00;99.90;;;;;;5041825;28;20966;-71
2022/09/15 00:29:28;;;;;;;1.92;1.58;;;20.90;99.90;;;;;;5039134;28;20199;-71
2022/09/15 00:31:55;;;;;;;2.60;1.70;;;20.90;99.90;;;;;;5038494;28;20261;-71
2022/09/15 00:34:22;;;;;;;2.08;1.40;;;20.90;99.90;;;;;;5041549;28;20831;-71
2022/09/15 00:36:49;;;;;;;1.50;1.40;;;20.80;99.90;;;;;;5035884;28;20200;-71
2022/09/15 00:39:16;;;;;;;2.38;1.55;;;20.70;99.90;;;;;;5039013;28;20196;-72
2022/09/15 00:41:44;;;;;;;1.98;1.30;;;20.70;99.90;;;;;;5039775;28;20201;-72
2022/09/15 00:44:44;;;;;;;1.48;1.35;;;20.70;99.90;;;;;;5037972;28;20228;-72
2022/09/15 00:47:13;;;;;;;1.50;1.40;;;20.70;99.90;;;;;;5041248;28;20197;-71
2022/09/15 00:49:41;;;;;;;1.63;1.50;;;20.70;99.90;;;;;;5034900;28;20220;-73
2022/09/15 00:52:12;;;;;;;1.85;1.35;;;20.60;99.90;;;;;;5041808;28;20209;-72
2022/09/15 00:54:42;;;;;;;1.98;1.42;;;20.60;99.90;;;;;;5043826;28;20219;-71
2022/09/15 00:57:14;;;;;;;1.98;1.77;;;20.60;99.90;;;;;;5038452;28;20200;-71
2022/09/15 00:59:42;;;;;;;2.05;1.65;;;20.40;99.90;;;;;;5031207;28;20218;-71
2022/09/15 01:02:16;;;;;;;1.67;1.55;;;20.30;99.90;;;;;;5041737;28;20642;-72
2022/09/15 01:04:43;;;;;;;1.50;1.40;;;20.30;99.90;;;;;;5039532;28;20242;-72
2022/09/15 01:07:15;;;;;;;2.80;1.58;;;20.20;99.90;;;;;;5035774;28;20191;-72
2022/09/15 01:09:49;;;;;;;1.40;1.30;;;20.30;99.90;;;;;;5041011;28;20248;-72
2022/09/15 01:12:17;;;;;;;3.28;1.65;;;20.20;99.90;;;;;;5039670;28;20196;-73
2022/09/15 01:14:44;;;;;;;1.55;1.45;;;20.20;99.90;;;;;;5042096;28;20227;-72
2022/09/15 01:17:22;;;;;;;2.78;1.38;;;20.20;99.90;;;;;;5039354;28;20196;-72
2022/09/15 01:20:14;;;;;;;1.30;1.20;;;20.30;99.90;;;;;;5036566;28;20314;-71
2022/09/15 01:22:54;;;;;;;1.35;1.25;;;20.40;99.90;;;;;;5035848;28;20222;-71
2022/09/15 01:25:35;;;;;;;1.95;1.40;;;20.40;99.90;;;;;;5038414;28;20226;-72
2022/09/15 01:28:43;;;;;;;2.80;1.77;;;20.40;99.90;;;;;;5042158;28;20196;-71
2022/09/15 01:31:18;;;;;;;2.13;1.70;;;20.40;99.90;;;;;;5014142;28;20215;-72
2022/09/15 01:33:48;;;;;;;1.98;1.77;;;20.30;99.90;;;;;;5038220;28;20227;-72
2022/09/15 01:36:21;;;;;;;1.70;1.60;;;20.20;99.90;;;;;;5042157;28;20215;-72
2022/09/15 01:38:55;;;;;;;1.90;1.73;;;20.20;99.90;;;;;;5043229;28;20204;-72
2022/09/15 01:41:28;;;;;;;1.77;1.55;;;20.20;99.90;;;;;;5033648;28;20243;-72
2022/09/15 01:44:02;;;;;;;1.85;1.55;;;20.20;99.90;;;;;;5036268;28;20239;-71
2022/09/15 01:46:33;;;;;;;1.60;1.50;;;20.10;99.90;;;;;;5040617;28;20218;-72
2022/09/15 01:49:03;;;;;;;2.50;1.63;;;20.20;99.90;;;;;;5041828;28;20210;-72
2022/09/15 01:51:32;;;;;;;1.80;1.70;;;20.10;99.90;;;;;;5040851;28;20221;-72
2022/09/15 01:54:02;;;;;;;2.25;1.50;;;20.10;99.90;;;;;;5035233;28;20223;-72
2022/09/15 01:56:29;;;;;;;1.90;1.80;;;20.10;99.90;;;;;;5040920;28;20954;-72
2022/09/15 01:58:57;;;;;;;2.00;1.80;;;20.00;99.90;;;;;;5037558;28;20211;-72
2022/09/15 02:01:30;;;;;;;1.55;1.45;;;20.00;99.90;;;;;;5041198;28;20280;-72
2022/09/15 02:04:04;;;;;;;1.58;1.48;;;20.00;99.90;;;;;;5036552;28;20238;-72
2022/09/15 02:06:36;;;;;;;1.95;1.85;;;20.00;99.90;;;;;;5035928;28;20216;-71
2022/09/15 02:09:07;;;;;;;1.75;1.65;;;20.00;99.90;;;;;;5040873;28;20192;-72
2022/09/15 02:11:36;;;;;;;2.95;1.52;;;20.00;99.90;;;;;;5040333;28;20235;-72
2022/09/15 02:14:10;;;;;;;2.20;1.60;;;20.00;99.90;;;;;;5035603;28;20230;-71
2022/09/15 02:16:41;;;;;;;1.83;1.52;;;20.00;99.90;;;;;;5037853;28;20211;-72
2022/09/15 02:19:15;;;;;;;1.67;1.58;;;19.90;99.90;;;;;;5037439;28;20199;-72
2022/09/15 02:21:52;;;;;;;1.95;1.73;;;19.90;99.90;;;;;;5037633;28;20211;-72
2022/09/15 02:24:24;;;;;;;1.90;1.58;;;19.90;99.90;;;;;;5040664;28;20219;-72
2022/09/15 02:26:55;;;;;;;2.97;1.48;;;19.90;99.90;;;;;;5034831;28;20597;-72
2022/09/15 02:29:25;;;;;;;3.17;1.75;;;19.90;99.90;;;;;;5034338;28;20196;-72
2022/09/15 02:31:56;;;;;;;2.08;1.88;;;19.90;99.90;;;;;;5042831;28;20203;-72
2022/09/15 02:34:29;;;;;;;1.73;1.60;;;19.80;99.90;;;;;;5036534;28;20227;-72
2022/09/15 02:36:56;;;;;;;2.35;1.60;;;19.80;99.90;;;;;;5041421;28;20195;-72
2022/09/15 02:39:29;;;;;;;1.75;1.65;;;19.80;99.90;;;;;;5040721;28;20227;-73
2022/09/15 02:41:58;;;;;;;1.48;1.30;;;19.80;99.90;;;;;;5039507;28;20197;-71
2022/09/15 02:44:25;;;;;;;2.05;1.80;;;19.80;99.90;;;;;;5033112;28;20220;-72
2022/09/15 02:46:53;;;;;;;1.98;1.88;;;19.80;99.90;;;;;;5038605;28;20218;-72
2022/09/15 02:49:20;;;;;;;1.70;1.60;;;19.70;99.90;;;;;;5033348;28;20199;-71
2022/09/15 02:51:48;;;;;;;1.65;1.52;;;19.70;99.90;;;;;;5044067;28;20199;-73
2022/09/15 02:54:15;;;;;;;1.52;1.42;;;19.70;99.90;;;;;;5040752;28;20250;-72
2022/09/15 02:56:43;;;;;;;1.52;1.42;;;19.70;99.90;;;;;;5043885;28;20208;-71
2022/09/15 02:59:10;;;;;;;3.45;1.60;;;19.70;99.90;;;;;;5034765;28;20222;-73
2022/09/15 03:01:37;;;;;;;2.00;1.88;;;19.70;99.90;;;;;;5037007;28;20217;-72
2022/09/15 03:04:05;;;;;;;2.70;1.80;;;19.70;99.90;;;;;;5035206;28;20239;-72
2022/09/15 03:06:34;;;;;;;2.13;1.60;;;19.70;99.90;;;;;;5032836;28;20558;-72
2022/09/15 03:09:06;;;;;;;2.00;1.80;;;19.60;99.90;;;;;;5035306;28;20639;-72
2022/09/15 03:11:33;;;;;;;1.83;1.70;;;19.60;99.90;;;;;;5036099;28;20303;-72
2022/09/15 03:14:02;;;;;;;1.67;1.58;;;19.60;99.90;;;;;;5039623;28;20230;-75
2022/09/15 03:16:31;;;;;;;2.63;1.73;;;19.60;99.90;;;;;;5037480;28;20696;-72
2022/09/15 03:18:59;;;;;;;1.52;1.42;;;19.60;99.90;;;;;;5031951;28;20196;-71
2022/09/15 03:21:28;;;;;;;2.72;1.60;;;19.60;99.90;;;;;;5033323;28;20216;-72
2022/09/15 03:23:55;;;;;;;2.17;1.67;;;19.60;99.90;;;;;;5042254;28;20242;-72
2022/09/15 03:26:24;;;;;;;1.95;1.63;;;19.60;99.90;;;;;;5037313;28;20284;-72
2022/09/15 03:28:51;;;;;;;1.80;1.60;;;19.60;99.90;;;;;;5039517;28;20198;-72
2022/09/15 03:31:18;;;;;;;1.80;1.60;;;19.60;99.90;;;;;;5034753;28;20226;-72
2022/09/15 03:33:46;;;;;;;2.72;1.70;;;19.50;99.90;;;;;;5040502;28;20263;-71
2022/09/15 03:36:13;;;;;;;1.80;1.70;;;19.50;99.90;;;;;;5038097;28;20224;-72
2022/09/15 03:38:40;;;;;;;1.95;1.70;;;19.50;99.90;;;;;;5035251;28;20199;-72
2022/09/15 03:41:10;;;;;;;1.90;1.65;;;19.50;99.90;;;;;;5034236;28;20673;-71
2022/09/15 03:43:39;;;;;;;1.63;1.42;;;19.60;99.90;;;;;;5036066;28;20215;-71
2022/09/15 03:46:08;;;;;;;3.60;1.70;;;19.60;99.90;;;;;;5034348;28;20223;-72
2022/09/15 03:48:36;;;;;;;2.88;1.50;;;19.60;99.90;;;;;;5037437;28;20204;-72
2022/09/15 03:51:04;;;;;;;3.20;2.08;;;19.60;99.90;;;;;;5036999;28;20223;-72
2022/09/15 03:53:33;;;;;;;5.18;2.00;;;19.60;99.90;;;;;;5037654;28;20221;-72
2022/09/15 03:56:08;;;;;;;1.75;1.45;;;19.50;99.90;;;;;;5034715;28;20330;-72
2022/09/15 03:58:35;;;;;;;2.90;1.60;;;19.50;99.90;;;;;;5037380;28;20203;-72
2022/09/15 04:01:04;;;;;;;2.65;1.90;;;19.40;99.90;;;;;;5032517;28;20216;-72
2022/09/15 04:03:32;;;;;;;3.53;1.60;;;19.40;99.90;;;;;;5036835;28;20220;-71
2022/09/15 04:05:59;;;;;;;2.10;1.73;;;19.40;99.90;;;;;;5032713;28;20230;-71
2022/09/15 04:08:26;;;;;;;2.92;1.60;;;19.40;99.90;;;;;;5039601;28;20210;-72
2022/09/15 04:10:53;;;;;;;1.67;1.50;;;19.40;99.90;;;;;;5032025;28;20230;-72
2022/09/15 04:13:20;;;;;;;1.73;1.63;;;19.40;99.90;;;;;;5034073;28;20605;-72
2022/09/15 04:15:48;;;;;;;2.53;1.75;;;19.40;99.90;;;;;;5033986;28;20212;-71
2022/09/15 04:18:16;;;;;;;1.67;1.58;;;19.40;99.90;;;;;;5033960;28;20197;-72
2022/09/15 04:20:43;;;;;;;1.70;1.60;;;19.40;99.90;;;;;;5034046;28;20226;-72
2022/09/15 04:23:10;;;;;;;1.90;1.80;;;19.40;99.90;;;;;;5043556;28;20211;-72
2022/09/15 04:25:37;;;;;;;2.88;2.00;;;19.40;99.90;;;;;;5036735;28;20227;-72
2022/09/15 04:28:05;;;;;;;2.20;2.00;;;19.30;99.90;;;;;;5037866;28;20199;-72
2022/09/15 04:30:32;;;;;;;2.80;1.90;;;19.30;99.90;;;;;;5033588;28;20220;-70
2022/09/15 04:32:59;;;;;;;3.08;2.17;;;19.30;99.90;;;;;;5038860;28;20227;-72
2022/09/15 04:35:27;;;;;;;3.50;1.98;;;19.30;99.90;;;;;;5033623;28;20605;-72
2022/09/15 04:37:55;;;;;;;2.00;1.70;;;19.30;99.90;;;;;;5034464;28;20221;-71
2022/09/15 04:40:22;;;;;;;2.13;1.95;;;19.30;99.90;;;;;;5036255;28;20338;-72
2022/09/15 04:42:49;;;;;;;1.60;1.50;;;19.20;99.90;;;;;;5035280;28;20231;-72
2022/09/15 04:45:16;;;;;;;3.40;1.80;;;19.20;99.90;;;;;;5034086;28;20226;-72
2022/09/15 04:47:43;;;;;;;1.70;1.60;;;19.20;99.90;;;;;;5030681;28;20205;-72
2022/09/15 04:50:11;;;;;;;1.98;1.80;;;19.20;99.90;;;;;;5030731;28;20243;-72
2022/09/15 04:52:39;;;;;;;1.60;1.50;;;19.20;99.90;;;;;;5039660;28;20258;-72
2022/09/15 04:55:07;;;;;;;1.90;1.75;;;19.20;99.90;;;;;;5036540;28;20355;-72
2022/09/15 04:57:34;;;;;;;1.63;1.52;;;19.20;99.90;;;;;;5035409;28;20206;-71
2022/09/15 05:00:03;;;;;;;2.05;1.40;;;19.20;99.90;;;;;;5034253;28;20250;-72
2022/09/15 05:02:30;;;;;;;1.98;1.70;;;19.20;99.90;;;;;;5037569;28;20203;-71
2022/09/15 05:04:57;;;;;;;1.55;1.33;;;19.20;99.90;;;;;;5034378;28;20231;-72
2022/09/15 05:07:25;;;;;;;3.70;2.05;;;19.20;99.90;;;;;;5036818;28;20621;-72
2022/09/15 05:09:53;;;;;;;2.50;1.80;;;19.20;99.90;;;;;;5039899;28;20219;-71
2022/09/15 05:12:20;;;;;;;2.30;1.90;;;19.20;99.90;;;;;;5042568;28;20614;-72
2022/09/15 05:14:47;;;;;;;1.95;1.85;;;19.10;99.90;;;;;;5039588;28;20224;-72
2022/09/15 05:17:14;;;;;;;2.28;1.83;;;19.10;99.90;;;;;;5038400;28;20199;-72
2022/09/15 05:19:41;;;;;;;1.92;1.73;;;19.10;99.90;;;;;;5036898;28;20243;-72
2022/09/15 05:22:08;;;;;;;1.85;1.75;;;19.10;99.90;;;;;;5045995;28;20195;-72
2022/09/15 05:24:36;;;;;;;1.92;1.65;;;19.20;99.90;;;;;;5041586;28;20231;-72
2022/09/15 05:27:05;;;;;;;1.67;1.58;;;19.20;99.90;;;;;;5039893;28;20226;-72
2022/09/15 05:29:32;;;;;;;2.10;1.85;;;19.30;99.90;;;;;;5040626;28;20227;-72
2022/09/15 05:31:59;;;;;;;1.80;1.70;;;19.30;99.90;;;;;;5039355;28;20199;-72
2022/09/15 05:34:26;;;;;;;2.53;1.95;;;19.50;99.90;;;;;;5035777;28;20220;-72
2022/09/15 05:36:53;;;;;;;2.53;1.70;;;19.70;99.90;;;;;;5041351;28;20325;-72
2022/09/15 05:39:20;;;;;;;1.75;1.65;;;19.90;99.90;;;;;;5038961;28;20824;-72
2022/09/15 05:41:47;;;;;;;2.80;1.63;;;20.10;99.90;;;;;;5042384;28;20263;-74
2022/09/15 05:44:15;;;;;;;2.22;1.77;;;20.20;99.90;;;;;;5042685;28;20701;-73
2022/09/15 05:46:43;;;;;;;2.17;1.98;;;20.10;99.90;;;;;;5036529;28;20709;-72
2022/09/15 05:49:10;;;;;;;2.17;1.98;;;20.10;99.90;;;;;;5039348;28;20196;-74
2022/09/15 05:51:37;;;;;;;2.25;1.65;;;20.00;99.90;;;;;;5045450;28;20207;-72
2022/09/15 05:54:04;;;;;;;2.15;1.75;;;19.90;99.90;;;;;;5043109;28;20227;-72
2022/09/15 05:56:32;;;;;;;2.00;1.80;;;19.80;99.90;;;;;;5034814;28;20220;-72
2022/09/15 05:58:59;;;;;;;3.00;2.03;;;19.80;99.90;;;;;;5043149;28;20238;-72
2022/09/15 06:01:28;;;;;;;2.92;2.05;;;19.70;99.90;;;;;;5038582;28;20223;-72
2022/09/15 06:03:57;;;;;;;3.00;2.58;;;19.70;99.90;;;;;;5046800;28;20226;-71
2022/09/15 06:06:25;;;;;;;2.63;2.05;;;19.60;99.90;;;;;;5039950;28;20230;-72
2022/09/15 06:08:54;;;;;;;3.45;2.13;;;19.50;99.90;;;;;;5041693;28;20199;-72
2022/09/15 06:11:23;;;;;;;2.67;2.20;;;19.40;99.90;;;;;;5037845;28;20211;-72
2022/09/15 06:13:50;;;;;;;2.38;2.17;;;19.30;99.90;;;;;;5042768;28;20241;-72
2022/09/15 06:16:20;;;;;;;3.15;2.40;;;19.30;99.90;;;;;;5031983;28;20219;-72
2022/09/15 06:18:49;;;;;;;2.13;1.92;;;19.20;99.90;;;;;;5040657;28;20208;-73
2022/09/15 06:21:18;;;;;;;3.33;2.40;;;19.30;99.90;;;;;;5029503;28;20215;-72
2022/09/15 06:23:46;;;;;;;2.03;1.85;;;19.40;99.90;;;;;;5033596;28;20223;-72
2022/09/15 06:26:16;;;;;;;4.15;2.20;;;19.60;99.90;;;;;;5028111;28;20709;-74
2022/09/15 06:28:49;;;;;;;1.95;1.70;;;19.80;99.90;;;;;;5034616;28;20210;-72
2022/09/15 06:31:16;;;;;;;3.13;2.10;;;20.00;99.90;;;;;;5031571;28;20220;-72
2022/09/15 06:33:45;;;;;;;3.40;2.03;;;20.10;99.90;;;;;;5031240;28;20783;-72
2022/09/15 06:36:15;;;;;;;2.67;1.63;;;20.20;99.90;;;;;;5024145;28;20215;-73
2022/09/15 06:38:43;;;;;;;4.60;2.97;;;20.40;99.90;;;;;;5039994;28;20199;-71
2022/09/15 06:41:11;;;;;;;3.42;2.40;;;20.70;99.90;;;;;;5028732;28;20855;-72
2022/09/15 06:43:39;;;;;;;3.88;2.38;;;21.20;99.90;;;;;;5022832;28;20224;-72
2022/09/15 06:46:08;;;;;;;3.85;3.10;;;21.30;99.90;;;;;;5033966;28;20223;-72
2022/09/15 06:48:37;;;;;;;2.60;2.35;;;21.30;99.90;;;;;;5031768;28;20203;-72
2022/09/15 06:51:06;;;;;;;3.15;2.83;;;21.50;99.90;;;;;;5025796;28;20228;-73
2022/09/15 06:53:36;;;;;;;4.65;3.00;;;21.90;99.90;;;;;;5024192;28;20989;-72
2022/09/15 06:56:04;;;;;;;5.05;3.22;;;22.00;99.90;;;;;;5020638;28;20579;-73
2022/09/15 06:58:33;;;;;;;3.55;3.00;;;22.30;99.90;;;;;;5023826;28;20200;-74
2022/09/15 07:01:02;;;;;;;4.20;3.20;;;22.60;99.90;;;;;;5020664;28;20219;-78
2022/09/15 07:03:30;;;;;;;3.50;2.30;;;23.00;99.90;;;;;;5023161;28;20945;-75
2022/09/15 07:05:57;;;;;;;3.40;3.10;;;23.40;99.90;;;;;;5017435;28;20234;-74
2022/09/15 07:08:24;;;;;;;5.57;3.03;;;23.70;99.90;;;;;;5027896;28;20220;-74
2022/09/15 07:10:53;;;;;;;3.50;3.20;;;23.70;99.90;;;;;;5023486;28;20227;-73
2022/09/15 07:13:20;;;;;;;7.07;3.42;;;23.90;99.90;;;;;;5028351;28;20219;-73
2022/09/15 07:15:52;;;;;;;3.58;2.85;;;23.50;99.90;;;;;;5031502;28;20219;-72
2022/09/15 07:18:19;;;;;;;3.90;3.17;;;23.00;99.90;;;;;;5028861;28;20192;-72
2022/09/15 07:20:46;;;;;;;3.17;2.30;;;22.60;99.90;;;;;;5026675;28;20236;-72
2022/09/15 07:23:13;;;;;;;3.00;2.70;;;22.50;99.90;;;;;;5028312;28;20239;-71
2022/09/15 07:25:44;;;;;;;4.45;2.92;;;22.30;99.90;;;;;;5033868;28;20223;-72
2022/09/15 07:28:13;;;;;;;3.17;2.85;;;22.20;99.90;;;;;;5031559;28;20334;-72
2022/09/15 07:30:41;;;;;;;4.30;2.97;;;22.50;99.90;;;;;;5031446;28;20221;-72
2022/09/15 07:33:09;;;;;;;4.10;2.95;;;22.90;99.90;;;;;;5033246;28;20227;-71
2022/09/15 07:35:41;;;;;;;3.35;2.72;;;23.20;99.90;;;;;;5032642;28;20227;-71
2022/09/15 07:38:08;;;;;;;4.53;3.30;;;23.80;99.90;;;;;;5033201;28;20204;-71
2022/09/15 07:40:36;;;;;;;4.63;2.80;;;24.20;99.90;;;;;;5033943;28;20720;-72
2022/09/15 07:43:03;;;;;;;5.05;3.85;;;24.70;99.90;;;;;;5032294;28;20278;-72
2022/09/15 07:45:34;;;;;;;4.03;3.05;;;25.10;99.90;;;;;;5031155;28;20247;-71
2022/09/15 07:48:01;;;;;;;4.63;3.22;;;25.40;99.90;;;;;;5032837;28;20302;-72
2022/09/15 07:50:28;;;;;;;4.35;3.63;;;25.60;99.90;;;;;;5031460;28;20294;-72
2022/09/15 07:52:56;;;;;;;5.95;2.60;;;25.80;99.90;;;;;;5035364;28;20242;-73
2022/09/15 07:55:23;;;;;;;3.42;2.83;;;26.00;99.90;;;;;;5027980;28;20220;-73
2022/09/15 07:57:57;;;;;;;6.47;3.10;;;26.30;99.90;;;;;;5032058;28;20222;-73
2022/09/15 08:00:24;;;;;;;6.70;3.53;;;26.40;99.90;;;;;;5028880;28;20279;-74
2022/09/15 08:02:53;;;;;;;4.45;3.40;;;26.30;99.90;;;;;;5033962;28;20277;-72
2022/09/15 08:05:20;;;;;;;3.85;2.92;;;26.00;99.90;;;;;;5034156;28;20220;-73
2022/09/15 08:07:47;;;;;;;4.00;2.67;;;26.10;99.90;;;;;;5033950;28;20231;-74
2022/09/15 08:10:14;;;;;;;3.33;2.72;;;26.30;99.90;;;;;;5035095;28;20216;-73
2022/09/15 08:12:41;;;;;;;4.80;2.72;;;26.70;99.90;;;;;;5032392;28;20223;-73
2022/09/15 08:15:09;;;;;;;8.88;3.10;;;26.70;99.90;;;;;;5033615;28;20219;-72
2022/09/15 08:17:36;;;;;;;6.50;3.03;;;27.10;99.90;;;;;;5031434;28;20252;-75
2022/09/15 08:20:05;;;;;;;4.65;2.78;;;27.10;99.90;;;;;;5034524;28;20242;-72
2022/09/15 08:22:33;;;;;;;3.67;2.42;;;27.30;99.90;;;;;;5032612;28;21020;-72
2022/09/15 08:25:00;;;;;;;5.40;2.35;;;27.10;99.90;;;;;;5035294;28;20220;-73
2022/09/15 08:27:27;;;;;;;4.70;3.03;;;27.10;99.90;;;;;;5032092;28;20230;-72
2022/09/15 08:29:55;;;;;;;5.03;3.20;;;27.00;99.90;;;;;;5034668;28;20215;-72
2022/09/15 08:32:22;;;;;;;4.65;2.80;;;26.90;99.90;;;;;;5033106;28;20269;-72
2022/09/15 08:34:49;;;;;;;3.67;2.60;;;27.00;99.90;;;;;;5032548;28;20219;-72
2022/09/15 08:37:18;;;;;;;4.30;2.88;;;27.10;99.90;;;;;;5035243;28;20246;-72
2022/09/15 08:39:46;;;;;;;5.55;3.22;;;27.10;99.90;;;;;;5033432;28;20227;-72
2022/09/15 08:42:16;;;;;;;5.57;3.00;;;27.20;99.90;;;;;;5033828;28;20199;-73
2022/09/15 08:44:48;;;;;;;4.53;2.88;;;27.00;99.90;;;;;;5034935;28;20238;-75
2022/09/15 08:47:18;;;;;;;5.00;2.72;;;26.40;99.90;;;;;;5033886;28;20231;-73
2022/09/15 08:49:55;;;;;;;8.00;3.50;;;25.90;99.90;;;;;;5038369;28;20219;-73
2022/09/15 08:52:30;;;;;;;3.40;2.60;;;25.50;99.90;;;;;;5036485;28;20187;-72
2022/09/15 08:54:59;;;;;;;3.65;2.75;;;25.40;99.90;;;;;;5035472;28;20238;-72
2022/09/15 08:57:27;;;;;;;4.05;2.92;;;25.40;99.90;;;;;;5034490;28;20196;-72
2022/09/15 08:59:54;;;;;;;3.15;2.45;;;25.30;99.90;;;;;;5035549;28;20332;-72
2022/09/15 09:03:03;;;;;;;4.75;2.60;;;25.60;99.90;;;;;;5039579;28;20196;-73
2022/09/15 09:05:44;;;;;;;3.88;2.22;;;26.30;99.90;;;;;;4990069;28;20846;-73
2022/09/15 09:08:35;;;;;;;4.80;2.47;;;27.00;99.90;;;;;;5036908;28;20246;-73
2022/09/15 09:11:16;;;;;;;3.33;2.42;;;27.40;99.90;;;;;;5034932;28;20223;-72
2022/09/15 09:13:51;;;;;;;4.03;2.40;;;27.20;99.90;;;;;;5036725;28;20247;-74
2022/09/15 09:16:48;;;;;;;4.63;2.53;;;27.10;99.90;;;;;;5036018;28;20231;-73
2022/09/15 09:19:34;;;;;;;3.63;2.47;;;27.30;99.90;;;;;;5033654;28;20204;-72
2022/09/15 09:22:09;;;;;;;6.15;2.70;;;27.80;99.90;;;;;;5033086;28;20191;-73
2022/09/15 09:24:43;;;;;;;4.88;2.45;;;27.70;99.90;;;;;;5038198;28;20257;-71
2022/09/15 09:27:14;;;;;;;3.15;2.20;;;27.80;99.90;;;;;;5032457;28;20242;-72
2022/09/15 09:29:48;;;;;;;4.18;2.22;;;27.90;99.90;;;;;;5032874;28;20641;-72
2022/09/15 09:32:20;;;;;;;4.10;2.25;;;27.90;99.90;;;;;;5030951;28;20202;-71
2022/09/15 09:34:55;;;;;;;4.95;2.63;;;28.10;99.90;;;;;;5033147;28;20321;-72
2022/09/15 09:37:23;;;;;;;5.57;2.60;;;28.30;99.90;;;;;;5032947;28;20270;-73
2022/09/15 09:39:52;;;;;;;5.15;2.60;;;28.30;99.90;;;;;;5035065;28;20227;-72
2022/09/15 09:42:19;;;;;;;5.25;2.40;;;28.30;99.90;;;;;;5031303;28;20818;-73
2022/09/15 09:44:49;;;;;;;4.93;2.75;;;28.30;99.90;;;;;;5033348;28;20230;-72
2022/09/15 09:47:16;;;;;;;6.30;2.30;;;28.40;99.90;;;;;;5026599;28;20216;-72
2022/09/15 09:49:47;;;;;;;4.43;2.78;;;28.50;99.90;;;;;;5029998;28;20243;-72
2022/09/15 09:52:32;;;;;;;6.22;2.47;;;28.60;99.90;;;;;;5031512;28;20196;-72
2022/09/15 09:55:01;;;;;;;5.47;2.70;;;28.60;99.90;;;;;;5024491;28;20645;-73
2022/09/15 09:57:31;;;;;;;6.30;2.20;;;28.70;99.90;;;;;;5032384;28;20196;-72
2022/09/15 09:59:58;;;;;;;3.95;2.40;;;28.30;99.90;;;;;;5030524;28;20223;-72
2022/09/15 10:02:26;;;;;;;4.55;2.53;;;28.40;99.90;;;;;;5035061;28;20195;-72
2022/09/15 10:04:55;;;;;;;5.93;2.70;;;28.50;99.90;;;;;;5021582;28;20250;-72
2022/09/15 10:07:25;;;;;;;3.45;2.20;;;28.70;99.90;;;;;;5032063;28;20281;-73
2022/09/15 10:09:55;;;;;;;3.40;2.28;;;28.70;99.90;;;;;;5022563;28;20288;-72
2022/09/15 10:12:30;;;;;;;3.20;2.08;;;28.80;99.90;;;;;;5031328;28;20204;-72
2022/09/15 10:15:01;;;;;;;11.20;2.33;;;28.60;99.90;;;;;;5028693;28;20781;-72
2022/09/15 10:17:40;;;;;;;4.25;2.65;;;28.20;99.90;;;;;;5026895;28;20200;-72
2022/09/15 10:20:24;;;;;;;3.72;2.35;;;28.00;99.90;;;;;;5030807;28;20228;-75
2022/09/15 10:22:52;;;;;;;4.05;2.35;;;27.90;99.90;;;;;;5030201;28;20283;-73
2022/09/15 10:25:34;;;;;;;4.30;2.50;;;28.30;99.90;;;;;;5028385;28;20230;-71
2022/09/15 10:28:13;;;;;;;4.40;2.35;;;28.70;99.90;;;;;;5027229;28;20223;-72
2022/09/15 10:31:04;;;;;;;6.90;2.60;;;29.00;99.90;;;;;;5029049;28;20251;-72
2022/09/15 10:33:33;;;;;;;4.45;2.30;;;29.00;99.90;;;;;;5028870;28;20285;-72
2022/09/15 10:36:07;;;;;;;3.85;2.30;;;29.00;99.90;;;;;;5031201;28;20255;-71
2022/09/15 10:38:43;;;;;;;4.10;2.08;;;29.10;99.90;;;;;;5029843;28;20211;-73
2022/09/15 10:41:21;;;;;;;5.10;2.30;;;29.00;99.90;;;;;;5029045;28;20231;-72
2022/09/15 10:44:17;;;;;;;5.57;2.10;;;28.90;99.90;;;;;;5024989;28;21026;-72
2022/09/15 10:46:55;;;;;;;2.45;2.05;;;28.90;99.90;;;;;;5025594;28;20224;-72
2022/09/15 10:49:33;;;;;;;4.80;2.30;;;28.90;99.90;;;;;;5026792;28;20687;-71
2022/09/15 10:52:09;;;;;;;6.72;2.15;;;28.90;99.90;;;;;;5027444;28;20210;-71
2022/09/15 10:54:54;;;;;;;8.10;2.17;;;28.60;99.90;;;;;;5028606;28;20632;-72
2022/09/15 10:57:37;;;;;;;6.93;2.17;;;28.70;99.90;;;;;;5023681;28;20199;-74
2022/09/15 11:00:10;;;;;;;5.45;2.40;;;28.90;99.90;;;;;;5023912;28;20231;-71
2022/09/15 11:03:03;;;;;;;3.17;2.00;;;28.90;99.90;;;;;;5027158;28;20208;-72
2022/09/15 11:05:40;;;;;;;8.55;2.60;;;29.10;99.90;;;;;;5013232;28;20331;-73
2022/09/15 11:08:30;;;;;;;6.93;2.17;;;29.30;99.90;;;;;;5028246;28;20631;-72
2022/09/15 11:11:04;;;;;;;3.35;2.30;;;29.30;99.90;;;;;;5027070;28;20211;-72
2022/09/15 11:13:41;;;;;;;4.53;1.85;;;28.70;99.90;;;;;;5025492;28;20227;-72
2022/09/15 11:16:17;;;;;;;3.03;1.92;;;28.30;99.90;;;;;;5019406;28;20582;-72
2022/09/15 11:19:01;;;;;;;2.83;1.95;;;28.10;99.90;;;;;;5018834;28;20202;-73
2022/09/15 11:21:33;;;;;;;2.78;1.88;;;28.10;99.90;;;;;;5021887;28;20269;-71
2022/09/15 11:24:29;;;;;;;3.30;2.17;;;28.00;99.90;;;;;;5026189;28;20709;-71
2022/09/15 11:27:02;;;;;;;3.28;1.77;;;28.30;99.90;;;;;;5022157;28;20234;-71
2022/09/15 11:29:33;;;;;;;5.05;2.33;;;28.90;99.90;;;;;;5025798;28;20649;-72
2022/09/15 11:32:06;;;;;;;4.78;1.80;;;29.10;99.90;;;;;;5020240;28;20211;-72
2022/09/15 11:34:39;;;;;;;4.38;2.10;;;29.30;99.90;;;;;;5026785;28;20767;-72
2022/09/15 11:37:13;;;;;;;3.85;1.90;;;29.50;99.90;;;;;;5023384;28;20250;-73
2022/09/15 11:39:48;;;;;;;3.50;2.05;;;29.40;99.90;;;;;;5020277;28;20230;-72
2022/09/15 11:42:22;;;;;;;6.82;2.00;;;29.40;99.90;;;;;;5023123;28;20286;-71
2022/09/15 11:44:49;;;;;;;2.67;1.90;;;29.50;99.90;;;;;;5019324;28;20226;-74
2022/09/15 11:47:26;;;;;;;5.13;1.98;;;29.50;99.90;;;;;;5023138;28;20292;-74
2022/09/15 11:49:57;;;;;;;2.50;1.60;;;29.60;99.90;;;;;;5021770;28;20257;-76
2022/09/15 11:52:42;;;;;;;3.10;1.92;;;29.70;99.90;;;;;;5023191;28;20561;-75
2022/09/15 11:55:19;;;;;;;4.47;1.90;;;30.00;99.90;;;;;;5017458;28;20231;-73
2022/09/15 11:57:53;;;;;;;6.43;1.98;;;30.10;99.90;;;;;;5023157;28;20199;-74
2022/09/15 12:00:27;;;;;;;2.80;1.75;;;30.20;99.90;;;;;;5018310;28;20226;-75
2022/09/15 12:03:08;;;;;;;3.42;1.90;;;30.40;99.90;;;;;;5022547;28;20223;-75
2022/09/15 12:05:41;;;;;;;4.28;2.20;;;30.60;99.90;;;;;;5019290;28;20277;-75
2022/09/15 12:08:16;;;;;;;3.08;1.77;;;30.30;99.90;;;;;;5021450;28;20231;-75
2022/09/15 12:10:46;;;;;;;5.25;2.15;;;30.00;99.90;;;;;;5020784;28;20231;-74
2022/09/15 12:13:18;;;;;;;4.28;2.10;;;29.50;99.90;;;;;;5021234;28;20224;-73
2022/09/15 12:15:46;;;;;;;6.28;2.30;;;29.50;99.90;;;;;;5023203;28;20796;-75
2022/09/15 12:18:22;;;;;;;5.53;2.40;;;29.70;99.90;;;;;;5018444;28;20262;-74
2022/09/15 12:20:54;;;;;;;5.03;2.17;;;29.90;99.90;;;;;;5022260;28;20221;-73
2022/09/15 12:23:27;;;;;;;5.40;1.90;;;30.10;99.90;;;;;;5020863;28;20227;-74
2022/09/15 12:26:06;;;;;;;4.05;1.70;;;30.30;99.90;;;;;;5020586;28;20234;-76
2022/09/15 12:28:53;;;;;;;4.50;2.00;;;30.50;99.90;;;;;;5018311;28;20231;-73
2022/09/15 12:31:35;;;;;;;3.10;1.70;;;30.60;99.90;;;;;;5013103;28;20242;-73
2022/09/15 12:34:19;;;;;;;3.03;2.10;;;30.70;99.90;;;;;;5015365;28;20231;-72
2022/09/15 12:36:48;;;;;;;2.70;1.88;;;30.60;99.90;;;;;;5017486;28;20227;-72
2022/09/15 12:39:37;;;;;;;2.70;1.90;;;30.40;99.90;;;;;;5020131;28;20619;-75
2022/09/15 12:42:20;;;;;;;5.53;1.85;;;30.30;99.90;;;;;;5018275;28;20238;-74
2022/09/15 12:44:52;;;;;;;3.67;2.33;;;30.10;99.90;;;;;;5019646;28;20295;-75
2022/09/15 12:47:24;;;;;;;7.18;2.22;;;30.20;99.90;;;;;;5020401;28;20231;-76
2022/09/15 12:49:56;;;;;;;3.53;1.83;;;30.10;99.90;;;;;;5019068;28;20254;-76
2022/09/15 12:52:25;;;;;;;3.10;1.70;;;30.00;99.90;;;;;;5016361;28;21011;-76
2022/09/15 12:54:57;;;;;;;3.47;1.60;;;30.00;99.90;;;;;;5020236;28;20223;-76
2022/09/15 12:57:29;;;;;;;4.75;1.98;;;30.20;99.90;;;;;;5019039;28;20208;-77
2022/09/15 13:00:32;;;;;;;6.82;1.92;;;30.40;99.90;;;;;;5016759;28;20372;-74
2022/09/15 13:03:00;;;;;;;5.13;1.40;;;30.40;99.90;;;;;;4936906;28;20250;-75
2022/09/15 13:06:15;;;;;;;3.70;1.65;;;30.30;99.90;;;;;;4931803;28;20230;-75
2022/09/15 13:08:49;;;;;;;3.75;1.85;;;30.30;99.90;;;;;;4995658;28;20223;-75